Time;durP1;ratioP1;P1;durP2;ratioP2;P2;SDS_P1;SDS_P2;PMS_P1;PMS_P2;Temp;Humidity;BMP_temperature;BMP_pressure;BME280_temperature;BME280_humidity;BME280_pressure;Samples;Min_cycle;Max_cycle;Signal;HPM_P1;HPM_P2
2022/04/09 00:02:06;;;;;;;13.53;8.45;;;;;;;12.55;56.43;92780.45;1759481;80;21114;-50
2022/04/09 00:04:33;;;;;;;11.30;6.33;;;;;;;12.62;56.29;92782.67;1756931;80;21160;-50
2022/04/09 00:07:00;;;;;;;36.03;23.80;;;;;;;12.71;56.46;92782.40;1761728;80;21109;-50
2022/04/09 00:09:29;;;;;;;17.20;15.40;;;;;;;12.75;56.76;92773.22;1762229;80;21453;-51
2022/04/09 00:11:57;;;;;;;8.33;6.40;;;;;;;12.78;57.72;92773.58;1757471;80;21087;-51
2022/04/09 00:14:24;;;;;;;10.20;6.85;;;;;;;12.84;57.78;92775.05;1756389;80;20981;-50
2022/04/09 00:16:52;;;;;;;12.30;9.55;;;;;;;12.88;57.49;92766.52;1767093;80;21105;-50
2022/04/09 00:19:20;;;;;;;8.40;6.30;;;;;;;12.87;57.35;92758.86;1750833;80;21001;-50
2022/04/09 00:21:48;;;;;;;7.60;5.25;;;;;;;12.85;57.28;92755.09;1757882;80;21475;-51
2022/04/09 00:24:15;;;;;;;4.58;3.80;;;;;;;12.85;57.96;92750.95;1766179;80;21064;-51
2022/04/09 00:26:42;;;;;;;7.25;5.35;;;;;;;12.88;58.07;92752.72;1768180;80;21450;-50
2022/04/09 00:29:09;;;;;;;25.20;22.60;;;;;;;12.89;58.03;92748.70;1760849;80;21884;-51
2022/04/09 00:31:37;;;;;;;9.23;7.92;;;;;;;12.88;58.05;92738.92;1756975;80;21018;-51
2022/04/09 00:34:05;;;;;;;17.25;13.00;;;;;;;12.87;58.02;92731.91;1755909;81;20953;-51
2022/04/09 00:36:32;;;;;;;7.90;5.50;;;;;;;12.85;58.27;92737.16;1758027;81;20941;-51
2022/04/09 00:39:00;;;;;;;5.35;4.85;;;;;;;12.83;58.93;92725.27;1755924;81;21440;-49
2022/04/09 00:41:27;;;;;;;9.70;7.33;;;;;;;12.84;59.01;92735.05;1752049;81;21293;-51
2022/04/09 00:43:55;;;;;;;11.05;9.80;;;;;;;12.83;59.34;92727.27;1753603;81;21533;-52
2022/04/09 00:46:22;;;;;;;10.48;8.03;;;;;;;12.83;59.53;92725.27;1758011;81;20954;-51
2022/04/09 00:48:50;;;;;;;27.05;12.50;;;;;;;12.84;59.79;92723.24;1762990;81;20997;-50
2022/04/09 00:51:18;;;;;;;9.65;6.03;;;;;;;12.85;59.89;92710.95;1753475;81;21009;-51
2022/04/09 00:53:45;;;;;;;6.10;5.53;;;;;;;12.88;59.86;92712.06;1753303;81;21150;-50
2022/04/09 00:56:20;;;;;;;7.60;5.12;;;;;;;12.94;59.70;92705.16;1756207;81;20969;-50
2022/04/09 00:58:55;;;;;;;5.33;4.83;;;;;;;12.97;59.48;92708.28;1758837;81;21040;-52
2022/04/09 01:01:26;;;;;;;7.12;4.40;;;;;;;12.97;59.58;92697.23;1765151;81;21065;-51
2022/04/09 01:03:55;;;;;;;11.83;10.40;;;;;;;12.97;59.83;92719.32;1752214;81;20946;-50
2022/04/09 01:06:23;;;;;;;5.40;4.72;;;;;;;12.92;60.12;92731.12;1747482;79;21361;-50
2022/04/09 01:08:50;;;;;;;6.10;4.75;;;;;;;12.89;60.63;92738.40;1753080;81;21002;-50
2022/04/09 01:11:18;;;;;;;5.53;4.40;;;;;;;12.91;61.24;92732.38;1756180;81;21496;-51
2022/04/09 01:13:46;;;;;;;13.15;11.73;;;;;;;12.91;61.83;92728.98;1762537;81;21091;-51
2022/04/09 01:16:13;;;;;;;3.30;3.02;;;;;;;12.91;62.75;92737.90;1744705;81;20997;-51
2022/04/09 01:18:42;;;;;;;11.30;8.30;;;;;;;12.86;62.35;92713.86;1751292;81;21091;-51
2022/04/09 01:21:11;;;;;;;5.22;4.22;;;;;;;12.80;62.89;92709.73;1765517;79;20925;-50
2022/04/09 01:23:38;;;;;;;5.12;3.83;;;;;;;12.73;63.05;92706.77;1753324;81;21037;-50
2022/04/09 01:26:08;;;;;;;5.42;3.65;;;;;;;12.67;63.16;92706.79;1747915;81;21056;-51
2022/04/09 01:28:37;;;;;;;9.13;7.80;;;;;;;12.62;63.70;92702.06;1754726;81;21497;-50
2022/04/09 01:31:05;;;;;;;3.45;3.17;;;;;;;12.59;63.75;92709.22;1721433;81;21092;-50
2022/04/09 01:33:33;;;;;;;3.52;3.30;;;;;;;12.57;63.43;92702.81;1756981;81;21001;-50
2022/04/09 01:36:00;;;;;;;3.02;2.77;;;;;;;12.57;63.34;92708.98;1758042;81;21006;-51
2022/04/09 01:38:28;;;;;;;3.62;3.33;;;;;;;12.57;63.28;92701.44;1755751;81;21009;-51
2022/04/09 01:40:55;;;;;;;7.37;6.62;;;;;;;12.56;63.83;92699.20;1759299;81;21025;-50
2022/04/09 01:43:26;;;;;;;4.78;2.98;;;;;;;12.54;63.95;92692.07;1764830;79;21523;-51
2022/04/09 01:45:55;;;;;;;4.92;4.30;;;;;;;12.48;63.99;92694.73;1753028;81;21040;-50
2022/04/09 01:48:23;;;;;;;4.30;3.90;;;;;;;12.45;64.44;92693.73;1753328;81;20973;-51
2022/04/09 01:50:52;;;;;;;6.78;5.42;;;;;;;12.38;64.65;92684.63;1752856;81;21033;-51
2022/04/09 01:53:20;;;;;;;3.52;3.22;;;;;;;12.34;64.68;92682.77;1752903;81;21040;-49
2022/04/09 01:55:47;;;;;;;3.87;3.00;;;;;;;12.33;64.78;92683.26;1752945;81;21133;-50
2022/04/09 01:58:15;;;;;;;3.80;3.30;;;;;;;12.32;65.00;92688.66;1752954;81;21060;-50
2022/04/09 02:00:44;;;;;;;6.00;5.28;;;;;;;12.30;65.25;92678.13;1753432;81;21005;-50
2022/04/09 02:03:13;;;;;;;4.50;3.33;;;;;;;12.28;65.30;92676.50;1755985;81;20965;-50
2022/04/09 02:05:41;;;;;;;4.60;3.75;;;;;;;12.28;65.36;92675.77;1735138;80;21571;-51
2022/04/09 02:08:10;;;;;;;3.85;3.40;;;;;;;12.27;65.45;92685.30;1760429;80;20956;-50
2022/04/09 02:10:39;;;;;;;4.00;3.70;;;;;;;12.27;65.43;92676.38;1754525;81;21000;-50
2022/04/09 02:13:13;;;;;;;4.95;4.53;;;;;;;12.27;65.60;92677.77;1752325;81;21072;-50
2022/04/09 02:15:41;;;;;;;6.97;4.37;;;;;;;12.26;65.75;92677.64;1753834;81;20970;-50
2022/04/09 02:18:11;;;;;;;5.35;4.58;;;;;;;12.26;65.72;92681.05;1757555;79;20942;-50
2022/04/09 02:20:38;;;;;;;6.62;5.60;;;;;;;12.27;65.65;92679.78;1757793;81;21156;-52
2022/04/09 02:23:08;;;;;;;5.00;4.50;;;;;;;12.30;65.42;92684.28;1753163;81;21473;-51
2022/04/09 02:25:37;;;;;;;7.05;5.67;;;;;;;12.33;65.33;92681.27;1753520;81;21465;-51
2022/04/09 02:28:07;;;;;;;4.92;3.70;;;;;;;12.34;65.20;92674.49;1757863;81;21519;-52
2022/04/09 02:30:34;;;;;;;3.47;3.20;;;;;;;12.38;65.00;92683.86;1754215;81;20957;-52
2022/04/09 02:33:03;;;;;;;10.75;9.48;;;;;;;12.44;64.79;92691.49;1756839;81;21276;-50
2022/04/09 02:35:38;;;;;;;7.70;6.20;;;;;;;12.48;64.65;92679.56;1725333;81;21484;-51
2022/04/09 02:38:09;;;;;;;8.33;5.67;;;;;;;12.51;64.44;92678.54;1752638;81;21060;-51
2022/04/09 02:40:39;;;;;;;5.60;4.95;;;;;;;12.53;64.26;92682.91;1758279;81;20993;-50
2022/04/09 02:43:09;;;;;;;5.85;4.25;;;;;;;12.55;64.31;92675.64;1754830;81;20988;-50
2022/04/09 02:45:36;;;;;;;8.83;8.03;;;;;;;12.54;64.43;92670.73;1755372;81;21161;-51
2022/04/09 02:48:05;;;;;;;5.87;4.92;;;;;;;12.55;64.20;92670.13;1755788;81;21496;-52
2022/04/09 02:50:35;;;;;;;18.65;15.05;;;;;;;12.56;63.87;92668.22;1756097;81;21073;-51
2022/04/09 02:53:03;;;;;;;13.45;10.43;;;;;;;12.56;63.94;92668.86;1752471;81;20969;-50
2022/04/09 02:55:31;;;;;;;12.65;10.03;;;;;;;12.56;63.64;92659.95;1757913;81;21414;-50
2022/04/09 02:58:00;;;;;;;8.23;6.90;;;;;;;12.57;63.70;92677.26;1757241;81;21110;-51
2022/04/09 03:00:30;;;;;;;15.60;11.65;;;;;;;12.55;63.87;92665.98;1753441;81;20997;-49
2022/04/09 03:02:58;;;;;;;7.45;6.70;;;;;;;12.53;63.87;92678.16;1754216;81;20981;-51
2022/04/09 03:05:30;;;;;;;;;;;;;;;12.52;63.80;92667.01;1754088;81;21420;-51
2022/04/09 03:07:59;;;;;;;5.58;5.10;;;;;;;12.51;63.64;92664.13;1752976;81;20148;-53
2022/04/09 03:10:28;;;;;;;5.25;4.67;;;;;;;12.50;63.58;92661.26;1763172;79;21241;-51
2022/04/09 03:12:58;;;;;;;4.60;4.20;;;;;;;12.49;63.71;92670.77;1758046;81;21031;-50
2022/04/09 03:15:26;;;;;;;4.12;3.83;;;;;;;12.48;63.86;92669.27;1757732;81;21520;-51
2022/04/09 03:17:54;;;;;;;5.10;4.60;;;;;;;12.45;63.94;92649.61;1750658;81;20989;-50
2022/04/09 03:20:22;;;;;;;19.98;17.92;;;;;;;12.43;63.94;92632.83;1755229;81;21441;-51
2022/04/09 03:22:49;;;;;;;17.50;13.22;;;;;;;12.43;63.97;92664.53;1750513;81;21717;-52
2022/04/09 03:25:19;;;;;;;6.20;5.58;;;;;;;12.45;64.02;92650.98;1742254;81;20988;-53
2022/04/09 03:27:48;;;;;;;19.98;15.18;;;;;;;12.47;64.10;92647.73;1740662;82;21009;-52
2022/04/09 03:30:17;;;;;;;25.65;16.20;;;;;;;12.50;64.09;92668.77;1748348;82;21475;-52
2022/04/09 03:32:46;;;;;;;15.83;11.68;;;;;;;12.51;63.98;92657.23;1748249;81;21074;-53
2022/04/09 03:35:15;;;;;;;32.63;24.37;;;;;;;12.54;63.70;92665.87;1741666;82;21951;-53
2022/04/09 03:37:45;;;;;;;15.72;13.13;;;;;;;12.58;63.53;92660.83;1744136;82;21417;-54
2022/04/09 03:40:14;;;;;;;38.78;34.88;;;;;;;12.60;63.44;92661.06;1744106;82;20961;-52
2022/04/09 03:42:43;;;;;;;11.08;9.40;;;;;;;12.59;63.58;92663.70;1744066;82;21020;-53
2022/04/09 03:45:11;;;;;;;13.43;9.00;;;;;;;12.59;63.49;92665.08;1744030;82;20986;-52
2022/04/09 03:47:38;;;;;;;17.98;16.15;;;;;;;12.60;63.65;92661.83;1744301;82;21870;-55
2022/04/09 03:50:08;;;;;;;15.50;13.90;;;;;;;12.58;63.70;92658.06;1744355;82;20996;-54
2022/04/09 03:52:38;;;;;;;13.93;11.05;;;;;;;12.54;63.92;92657.59;1756049;80;21074;-55
2022/04/09 03:55:07;;;;;;;8.10;6.75;;;;;;;12.51;64.04;92675.16;1772855;79;21041;-54
2022/04/09 03:57:34;;;;;;;8.15;7.35;;;;;;;12.48;64.10;92674.78;1775273;80;20966;-53
2022/04/09 04:00:02;;;;;;;5.58;4.80;;;;;;;12.43;64.35;92662.42;1774846;80;21754;-53
2022/04/09 04:02:33;;;;;;;6.17;5.03;;;;;;;12.38;64.12;92673.59;1786065;80;21094;-53
2022/04/09 04:05:02;;;;;;;5.72;5.15;;;;;;;12.35;64.05;92677.98;1787797;80;20948;-53
2022/04/09 04:07:30;;;;;;;11.80;8.08;;;;;;;12.34;63.89;92671.73;1787682;80;21043;-54
2022/04/09 04:10:04;;;;;;;21.00;12.63;;;;;;;12.34;63.90;92666.84;1774619;80;21047;-53
2022/04/09 04:12:32;;;;;;;18.37;9.55;;;;;;;12.33;63.89;92664.72;1759584;80;21071;-55
2022/04/09 04:15:01;;;;;;;18.57;10.35;;;;;;;12.32;63.76;92670.73;1743442;81;21080;-54
2022/04/09 04:17:42;;;;;;;18.52;10.85;;;;;;;12.33;63.83;92669.47;1743935;81;21524;-53
2022/04/09 04:20:11;;;;;;;19.35;10.23;;;;;;;12.33;63.95;92665.34;1744054;82;21491;-52
2022/04/09 04:22:40;;;;;;;11.43;6.85;;;;;;;12.33;64.18;92653.69;1743764;82;20985;-53
2022/04/09 04:25:10;;;;;;;10.23;7.25;;;;;;;12.36;64.45;92660.18;1743644;82;20929;-53
2022/04/09 04:27:46;;;;;;;11.73;6.53;;;;;;;12.37;64.58;92670.72;1743504;82;20937;-53
2022/04/09 04:30:14;;;;;;;9.93;6.70;;;;;;;12.40;64.37;92668.93;1733109;81;21000;-55
2022/04/09 04:32:42;;;;;;;8.13;6.22;;;;;;;12.42;64.10;92675.45;1774403;80;20971;-53
2022/04/09 04:35:10;;;;;;;9.80;6.78;;;;;;;12.45;63.80;92668.91;1773468;80;21015;-53
2022/04/09 04:37:43;;;;;;;15.80;10.30;;;;;;;12.48;63.63;92679.56;1769936;81;21003;-56
2022/04/09 04:40:14;;;;;;;16.65;13.13;;;;;;;12.49;63.75;92671.41;1769993;81;20940;-54
2022/04/09 04:42:45;;;;;;;13.28;10.08;;;;;;;12.48;63.78;92665.12;1770161;81;21024;-54
2022/04/09 04:45:12;;;;;;;13.38;7.40;;;;;;;12.50;63.85;92667.39;1769718;81;21062;-55
2022/04/09 04:47:45;;;;;;;9.23;7.05;;;;;;;12.49;63.83;92659.73;1769971;81;20979;-55
2022/04/09 04:50:16;;;;;;;9.23;6.33;;;;;;;12.50;63.89;92659.88;1769795;81;21178;-54
2022/04/09 04:52:43;;;;;;;6.10;4.75;;;;;;;12.50;63.87;92657.73;1769451;81;20984;-55
2022/04/09 04:55:14;;;;;;;6.95;5.15;;;;;;;12.46;63.84;92666.27;1753260;79;21504;-55
2022/04/09 04:57:47;;;;;;;8.13;5.42;;;;;;;12.41;63.94;92675.33;1738641;82;21017;-55
2022/04/09 05:00:20;;;;;;;7.35;5.60;;;;;;;12.36;64.18;92685.00;1738827;81;20962;-54
2022/04/09 05:02:47;;;;;;;9.55;6.17;;;;;;;12.31;64.25;92682.41;1738608;82;21521;-53
2022/04/09 05:05:14;;;;;;;14.13;7.00;;;;;;;12.28;64.29;92687.53;1738077;81;21068;-54
2022/04/09 05:07:49;;;;;;;31.07;16.82;;;;;;;12.31;64.17;92688.53;1738739;82;21457;-56
2022/04/09 05:10:20;;;;;;;23.83;14.15;;;;;;;12.36;64.15;92685.00;1738654;82;20985;-54
2022/04/09 05:12:51;;;;;;;26.17;14.47;;;;;;;12.42;64.07;92682.98;1739133;82;20946;-55
2022/04/09 05:15:19;;;;;;;34.78;18.15;;;;;;;12.51;64.12;92686.20;1724683;81;21698;-55
2022/04/09 05:17:49;;;;;;;27.40;16.55;;;;;;;12.59;63.80;92687.15;1762152;79;20990;-56
2022/04/09 05:20:17;;;;;;;15.55;10.35;;;;;;;12.65;63.54;92692.00;1769878;79;20988;-54
2022/04/09 05:22:47;;;;;;;16.42;9.83;;;;;;;12.69;63.24;92693.88;1769477;79;20992;-54
2022/04/09 05:25:19;;;;;;;14.10;9.50;;;;;;;12.71;63.13;92694.11;1770052;81;21037;-52
2022/04/09 05:27:50;;;;;;;10.03;7.67;;;;;;;12.70;63.55;92693.35;1769771;79;21900;-56
2022/04/09 05:30:19;;;;;;;;;;;;;;;12.68;63.56;92695.14;1771180;79;21049;-54
2022/04/09 05:32:48;;;;;;;9.70;6.08;;;;;;;12.66;63.74;92692.11;1758422;81;20437;-55
2022/04/09 05:35:18;;;;;;;11.25;7.47;;;;;;;12.64;62.99;92696.02;1745293;80;21485;-54
2022/04/09 05:37:50;;;;;;;5.65;4.12;;;;;;;12.61;63.18;92692.91;1775552;80;21005;-53
2022/04/09 05:40:19;;;;;;;4.37;3.98;;;;;;;12.60;62.39;92699.68;1775069;80;21297;-55
2022/04/09 05:42:49;;;;;;;2.87;2.62;;;;;;;12.63;61.59;92697.27;1774923;80;21012;-53
2022/04/09 05:45:16;;;;;;;3.72;3.33;;;;;;;12.70;60.97;92692.62;1775271;80;21005;-55
2022/04/09 05:47:45;;;;;;;2.58;2.37;;;;;;;12.78;60.70;92682.53;1774236;80;20984;-54
2022/04/09 05:50:14;;;;;;;6.75;4.85;;;;;;;12.88;60.09;92670.67;1798033;79;20958;-55
2022/04/09 05:52:44;;;;;;;3.60;2.12;;;;;;;12.95;60.13;92677.69;1774601;80;21152;-54
2022/04/09 05:55:12;;;;;;;15.15;10.13;;;;;;;13.01;58.80;92683.30;1781438;79;20962;-55
2022/04/09 05:57:40;;;;;;;7.05;3.98;;;;;;;13.09;58.91;92682.84;1734240;82;20989;-55
2022/04/09 06:00:10;;;;;;;8.08;3.10;;;;;;;13.15;58.81;92682.81;1736209;81;21041;-57
2022/04/09 06:02:46;;;;;;;4.92;3.75;;;;;;;13.17;58.64;92697.61;1743426;81;21409;-55
2022/04/09 06:05:16;;;;;;;4.35;3.95;;;;;;;13.21;58.25;92711.89;1754772;78;21155;-55
2022/04/09 06:07:44;;;;;;;4.50;4.10;;;;;;;13.29;58.10;92706.56;1771063;80;20972;-57
2022/04/09 06:10:14;;;;;;;10.00;3.20;;;;;;;13.46;58.01;92718.97;1772651;79;21123;-56
2022/04/09 06:12:43;;;;;;;3.20;2.90;;;;;;;13.71;57.69;92707.34;1742915;81;20973;-55
2022/04/09 06:15:13;;;;;;;4.28;3.35;;;;;;;13.94;57.29;92707.25;1757494;80;20944;-56
2022/04/09 06:17:42;;;;;;;3.87;3.10;;;;;;;14.12;56.86;92710.70;1752495;78;21323;-56
2022/04/09 06:20:11;;;;;;;4.37;3.40;;;;;;;14.27;56.54;92724.30;1752610;78;21024;-54
2022/04/09 06:22:39;;;;;;;3.83;3.42;;;;;;;14.31;56.79;92725.37;1741342;80;21029;-55
2022/04/09 06:25:09;;;;;;;5.67;4.40;;;;;;;14.27;57.05;92726.30;1739828;81;21005;-57
2022/04/09 06:27:41;;;;;;;4.80;3.92;;;;;;;14.15;57.61;92734.58;1772147;80;21028;-55
2022/04/09 06:30:10;;;;;;;4.07;3.23;;;;;;;13.99;58.88;92745.17;1773034;78;21164;-56
2022/04/09 06:32:39;;;;;;;3.67;2.95;;;;;;;13.78;59.97;92742.07;1747311;80;21100;-55
2022/04/09 06:35:07;;;;;;;3.02;2.47;;;;;;;13.63;59.24;92752.02;1779398;78;21082;-56
2022/04/09 06:37:38;;;;;;;5.25;3.77;;;;;;;13.50;58.31;92742.94;1753549;80;21414;-53
2022/04/09 06:40:09;;;;;;;3.17;2.85;;;;;;;13.49;58.89;92751.09;1751455;80;21058;-60
2022/04/09 06:42:37;;;;;;;4.22;3.42;;;;;;;13.54;58.47;92732.98;1764615;79;21143;-56
2022/04/09 06:45:10;;;;;;;;;;;;;;;13.57;58.48;92720.89;1746776;82;20934;-56
2022/04/09 06:47:40;;;;;;;3.27;2.83;;;;;;;13.56;57.72;92735.97;1770988;79;20149;-56
2022/04/09 06:50:10;;;;;;;2.10;2.00;;;;;;;13.52;57.44;92734.89;1765028;80;21557;-55
2022/04/09 06:52:38;;;;;;;3.60;2.92;;;;;;;13.44;58.30;92728.41;1783840;79;21494;-57
2022/04/09 06:55:10;;;;;;;2.75;2.50;;;;;;;13.31;59.57;92723.36;1772979;80;21781;-56
2022/04/09 06:57:39;;;;;;;3.08;2.67;;;;;;;13.16;60.17;92732.01;1758335;80;20990;-55
2022/04/09 07:00:12;;;;;;;3.72;3.33;;;;;;;13.03;60.72;92728.31;1750568;80;21054;-57
2022/04/09 07:02:41;;;;;;;3.27;2.98;;;;;;;12.97;60.46;92737.26;1758994;80;21470;-57
2022/04/09 07:05:10;;;;;;;4.97;3.52;;;;;;;13.03;61.05;92720.03;1777651;79;21045;-56
2022/04/09 07:07:38;;;;;;;4.28;3.20;;;;;;;13.17;61.23;92710.66;1794017;80;21209;-58
2022/04/09 07:10:09;;;;;;;2.55;2.30;;;;;;;13.30;59.18;92705.30;1823588;78;20978;-57
2022/04/09 07:12:38;;;;;;;2.10;1.90;;;;;;;13.43;57.94;92711.72;1791416;80;21045;-56
2022/04/09 07:15:07;;;;;;;5.17;2.00;;;;;;;13.58;56.75;92709.34;1781887;79;21021;-55
2022/04/09 07:17:34;;;;;;;2.67;2.00;;;;;;;13.69;55.83;92716.78;1786520;79;20960;-56
2022/04/09 07:20:05;;;;;;;2.50;2.30;;;;;;;13.78;54.52;92720.61;1785790;79;21739;-54
2022/04/09 07:22:35;;;;;;;3.65;2.42;;;;;;;13.89;54.67;92713.58;1759511;80;21108;-55
2022/04/09 07:25:09;;;;;;;3.27;2.10;;;;;;;14.05;54.05;92716.83;1749098;81;21009;-57
2022/04/09 07:27:41;;;;;;;3.20;2.40;;;;;;;14.20;53.26;92719.97;1764977;80;21086;-57
2022/04/09 07:30:10;;;;;;;;;;;;;;;14.19;53.07;92722.63;1778886;80;21005;-54
2022/04/09 07:32:37;;;;;;;2.60;2.40;;;;;;;14.17;53.30;92730.69;1761746;80;21200;-58
2022/04/09 07:35:05;;;;;;;4.15;2.35;;;;;;;14.18;53.64;92730.16;1774208;79;21006;-54
2022/04/09 07:37:33;;;;;;;4.20;3.70;;;;;;;14.21;53.03;92720.09;1772004;80;21442;-57
2022/04/09 07:40:01;;;;;;;3.65;3.33;;;;;;;14.21;53.16;92722.85;1772429;78;21140;-55
2022/04/09 07:42:30;;;;;;;8.80;3.47;;;;;;;14.19;53.50;92743.36;1757929;78;20987;-57
2022/04/09 07:44:57;;;;;;;4.97;3.95;;;;;;;14.21;53.49;92740.83;1778618;80;21230;-56
2022/04/09 07:47:25;;;;;;;8.08;3.70;;;;;;;14.25;53.24;92739.90;1775369;78;21069;-56
2022/04/09 07:49:54;;;;;;;3.92;2.60;;;;;;;14.33;53.64;92744.98;1752470;81;21010;-53
2022/04/09 07:52:21;;;;;;;4.05;2.87;;;;;;;14.45;53.44;92753.37;1773302;80;20995;-56
2022/04/09 07:54:48;;;;;;;5.53;2.67;;;;;;;14.60;52.99;92777.23;1783939;80;21057;-56
2022/04/09 07:57:16;;;;;;;3.20;2.17;;;;;;;14.65;52.86;92776.41;1782121;80;21321;-55
2022/04/09 07:59:44;;;;;;;7.37;2.33;;;;;;;14.73;52.66;92784.27;1779913;79;21005;-55
2022/04/09 08:02:11;;;;;;;3.22;2.22;;;;;;;14.75;52.11;92778.19;1776863;80;21014;-54
2022/04/09 08:04:38;;;;;;;2.75;1.90;;;;;;;14.76;52.10;92776.92;1749859;79;21001;-55
2022/04/09 08:07:07;;;;;;;7.90;3.55;;;;;;;14.80;52.13;92773.98;1763141;80;21569;-55
2022/04/09 08:09:35;;;;;;;7.03;2.75;;;;;;;14.90;52.01;92797.28;1770961;80;21925;-55
2022/04/09 08:12:04;;;;;;;3.55;2.70;;;;;;;15.00;51.82;92770.71;1765229;78;20931;-56
2022/04/09 08:14:33;;;;;;;3.83;2.50;;;;;;;15.09;51.88;92772.37;1754828;80;21069;-57
2022/04/09 08:17:01;;;;;;;7.62;2.85;;;;;;;15.28;51.18;92775.89;1803661;78;21469;-55
2022/04/09 08:19:29;;;;;;;8.65;2.67;;;;;;;15.45;51.14;92790.29;1786708;78;21446;-57
2022/04/09 08:21:59;;;;;;;8.43;2.45;;;;;;;15.56;50.37;92782.56;1783032;80;21273;-57
2022/04/09 08:24:27;;;;;;;9.35;2.33;;;;;;;15.59;49.63;92798.16;1774675;79;21053;-55
2022/04/09 08:26:56;;;;;;;5.05;1.92;;;;;;;15.44;49.72;92790.18;1755072;80;21104;-57
2022/04/09 08:29:25;;;;;;;2.83;2.15;;;;;;;15.27;50.20;92795.16;1808985;79;20955;-57
2022/04/09 08:31:55;;;;;;;6.55;2.25;;;;;;;15.24;50.69;92794.84;1768703;80;21397;-57
2022/04/09 08:34:22;;;;;;;1.62;1.42;;;;;;;15.32;50.37;92790.23;1716510;81;21285;-58
2022/04/09 08:36:50;;;;;;;3.27;1.90;;;;;;;15.28;49.91;92778.66;1735053;80;21556;-57
2022/04/09 08:39:17;;;;;;;6.83;2.60;;;;;;;15.21;50.31;92785.54;1744036;80;21489;-58
2022/04/09 08:41:46;;;;;;;4.17;2.20;;;;;;;15.21;50.41;92791.73;1719868;80;21005;-57
2022/04/09 08:44:14;;;;;;;6.47;1.70;;;;;;;15.30;50.52;92797.67;1719986;83;20967;-55
2022/04/09 08:46:41;;;;;;;2.33;1.98;;;;;;;15.51;49.99;92790.33;1712282;81;21190;-55
2022/04/09 08:49:09;;;;;;;1.80;1.70;;;;;;;15.61;49.90;92793.47;1757978;80;21528;-56
2022/04/09 08:51:36;;;;;;;6.60;1.67;;;;;;;15.64;49.10;92799.34;1767463;80;21575;-57
2022/04/09 08:54:04;;;;;;;13.15;2.30;;;;;;;15.51;49.38;92802.80;1730746;81;21020;-56
2022/04/09 08:56:37;;;;;;;2.30;2.10;;;;;;;15.38;50.06;92799.95;1714970;81;20950;-57
2022/04/09 08:59:05;;;;;;;12.28;2.52;;;;;;;15.38;50.29;92790.91;1713784;81;21782;-56
2022/04/09 09:01:34;;;;;;;5.40;3.17;;;;;;;15.42;50.43;92797.65;1742984;80;21023;-56
2022/04/09 09:04:02;;;;;;;6.28;2.67;;;;;;;15.39;50.72;92788.98;1726209;82;20995;-54
2022/04/09 09:06:34;;;;;;;6.10;2.50;;;;;;;15.39;51.05;92790.36;1731327;80;21119;-54
2022/04/09 09:09:14;;;;;;;3.58;2.58;;;;;;;15.43;50.83;92793.60;1738999;80;20970;-55
2022/04/09 09:11:47;;;;;;;4.20;3.10;;;;;;;15.44;50.55;92797.87;1744689;80;21261;-56
2022/04/09 09:14:30;;;;;;;4.25;2.65;;;;;;;15.50;51.08;92791.60;1711287;80;21115;-55
2022/04/09 09:16:59;;;;;;;5.33;2.87;;;;;;;15.64;50.18;92802.11;1722946;82;21133;-54
2022/04/09 09:19:48;;;;;;;5.53;2.62;;;;;;;15.67;50.47;92805.20;1714514;80;21056;-54
2022/04/09 09:22:16;;;;;;;3.22;1.60;;;;;;;15.73;50.31;92792.77;1681364;82;21090;-55
2022/04/09 09:25:08;;;;;;;1.60;1.50;;;;;;;15.82;49.26;92773.61;1716314;80;20989;-56
2022/04/09 09:27:37;;;;;;;5.17;1.35;;;;;;;15.84;48.87;92789.84;1714421;80;21093;-58
2022/04/09 09:30:09;;;;;;;2.62;1.60;;;;;;;15.86;48.98;92774.80;1738779;81;20968;-56
2022/04/09 09:32:46;;;;;;;1.30;1.20;;;;;;;15.91;49.36;92761.48;1714563;81;21037;-56
2022/04/09 09:35:26;;;;;;;7.33;1.87;;;;;;;16.01;48.38;92772.92;1705030;81;21109;-55
2022/04/09 09:38:09;;;;;;;6.20;2.72;;;;;;;16.11;48.22;92760.89;1727491;82;21317;-57
2022/04/09 09:40:46;;;;;;;7.08;3.20;;;;;;;16.25;48.53;92772.13;1763781;79;21050;-56
2022/04/09 09:43:22;;;;;;;2.50;2.10;;;;;;;16.47;48.42;92762.05;1787093;78;21009;-56
2022/04/09 09:46:01;;;;;;;3.08;2.33;;;;;;;16.77;47.10;92779.89;1748477;80;21550;-57
2022/04/09 09:48:43;;;;;;;3.87;2.65;;;;;;;16.95;46.34;92783.20;1740923;81;21108;-55
2022/04/09 09:51:20;;;;;;;;;;;;;;;17.07;45.89;92792.09;1744642;80;21171;-56
2022/04/09 09:54:15;;;;;;;1.82;1.70;;;;;;;17.08;45.99;92782.47;1774556;80;20185;-57
2022/04/09 09:57:09;;;;;;;2.17;1.62;;;;;;;16.99;45.58;92796.78;1763969;79;21053;-56
2022/04/09 09:59:52;;;;;;;3.70;1.67;;;;;;;16.69;46.11;92787.38;1763892;79;20986;-57
2022/04/09 10:02:27;;;;;;;4.30;1.82;;;;;;;16.25;46.98;92791.56;1758543;80;21091;-56
2022/04/09 10:04:57;;;;;;;2.10;1.90;;;;;;;15.87;47.74;92793.59;1755828;80;21792;-55
2022/04/09 10:07:25;;;;;;;4.83;2.20;;;;;;;15.50;48.85;92784.67;1760143;81;20938;-55
2022/04/09 10:09:53;;;;;;;2.52;2.10;;;;;;;15.38;49.36;92786.09;1788592;79;21417;-55
2022/04/09 10:12:24;;;;;;;4.22;3.00;;;;;;;15.40;49.40;92770.34;1814767;79;20986;-54
2022/04/09 10:14:56;;;;;;;3.27;2.20;;;;;;;15.59;49.32;92764.14;1815089;79;21423;-55
2022/04/09 10:17:24;;;;;;;2.35;1.60;;;;;;;15.88;48.76;92766.70;1781122;80;21240;-54
2022/04/09 10:19:57;;;;;;;15.35;2.60;;;;;;;16.00;47.99;92767.27;1765608;81;20954;-57
2022/04/09 10:22:30;;;;;;;6.80;1.95;;;;;;;16.24;47.81;92762.31;1787348;79;20957;-56
2022/04/09 10:24:57;;;;;;;3.05;1.92;;;;;;;16.68;47.26;92758.75;1812080;78;21085;-56
2022/04/09 10:27:40;;;;;;;3.52;1.87;;;;;;;17.37;45.28;92752.95;1791875;79;21104;-55
2022/04/09 10:30:17;;;;;;;2.35;1.35;;;;;;;18.09;43.95;92752.66;1771599;81;21407;-58
2022/04/09 10:32:51;;;;;;;8.63;2.05;;;;;;;18.67;42.26;92744.70;1770853;81;21463;-56
2022/04/09 10:35:41;;;;;;;2.30;1.40;;;;;;;19.09;41.90;92736.33;1820554;78;20989;-56
2022/04/09 10:38:14;;;;;;;4.55;1.10;;;;;;;19.52;40.39;92722.39;1727898;79;21093;-56
2022/04/09 10:40:49;;;;;;;5.65;2.20;;;;;;;20.17;39.13;92711.86;1732706;82;21018;-57
2022/04/09 10:43:30;;;;;;;6.70;1.85;;;;;;;20.64;38.24;92707.83;1721916;82;21765;-57
2022/04/09 10:46:17;;;;;;;3.20;1.10;;;;;;;20.83;37.23;92708.16;1712151;81;21004;-57
2022/04/09 10:48:44;;;;;;;6.80;3.35;;;;;;;20.92;36.49;92718.81;1717892;81;21135;-56
2022/04/09 10:51:15;;;;;;;5.47;2.27;;;;;;;21.07;36.93;92720.91;1701775;83;21528;-57
2022/04/09 10:53:47;;;;;;;3.22;1.60;;;;;;;21.66;36.04;92726.88;1741367;80;21000;-57
2022/04/09 10:56:25;;;;;;;3.67;1.35;;;;;;;22.19;34.98;92713.41;1696914;82;21045;-57
2022/04/09 10:59:02;;;;;;;2.40;1.17;;;;;;;22.77;34.03;92722.59;1741012;80;21566;-58
2022/04/09 11:01:52;;;;;;;3.47;1.25;;;;;;;23.18;33.09;92722.50;1733024;80;21484;-57
2022/04/09 11:04:37;;;;;;;2.50;0.78;;;;;;;23.57;31.84;92732.05;1739551;80;20999;-58
2022/04/09 11:07:11;;;;;;;2.40;1.35;;;;;;;23.40;31.46;92725.05;1759876;81;21032;-56
2022/04/09 11:10:06;;;;;;;3.30;1.60;;;;;;;22.97;31.77;92730.52;1732083;80;21058;-57
2022/04/09 11:12:43;;;;;;;2.67;1.30;;;;;;;22.75;32.59;92734.28;1740273;81;21081;-58
2022/04/09 11:15:13;;;;;;;3.05;1.30;;;;;;;22.85;31.94;92742.88;1760811;81;20973;-56
2022/04/09 11:17:49;;;;;;;3.17;1.10;;;;;;;23.12;31.81;92742.38;1720440;81;21061;-58
2022/04/09 11:20:19;;;;;;;1.30;0.70;;;;;;;23.47;30.78;92736.11;1727855;82;20999;-56
2022/04/09 11:22:55;;;;;;;5.35;1.40;;;;;;;23.48;30.86;92743.20;1728197;81;21059;-57
2022/04/09 11:25:26;;;;;;;1.42;1.30;;;;;;;23.51;30.33;92735.02;1721729;81;21059;-56
2022/04/09 11:28:06;;;;;;;2.08;0.70;;;;;;;23.84;30.37;92732.88;1724734;83;21460;-57
2022/04/09 11:30:34;;;;;;;8.35;1.10;;;;;;;24.30;28.97;92729.52;1735580;81;21001;-58
2022/04/09 11:33:03;;;;;;;1.10;0.60;;;;;;;24.48;29.05;92720.44;1739430;81;21574;-57
2022/04/09 11:35:34;;;;;;;7.87;1.25;;;;;;;24.79;28.31;92734.78;1713164;81;21144;-58
2022/04/09 11:38:02;;;;;;;5.78;2.17;;;;;;;24.91;28.52;92727.27;1753978;79;21475;-57
2022/04/09 11:40:30;;;;;;;8.88;1.52;;;;;;;24.71;28.77;92723.66;1697691;82;21093;-57
2022/04/09 11:42:57;;;;;;;2.95;1.47;;;;;;;24.69;29.08;92716.47;1736253;82;21123;-57
2022/04/09 11:45:29;;;;;;;2.50;1.00;;;;;;;24.64;28.87;92726.59;1734172;82;21048;-55
2022/04/09 11:48:00;;;;;;;4.97;1.25;;;;;;;24.54;29.27;92751.13;1763196;80;21132;-57